createdAt,value
2022-11-23T00:01:37.381Z,97498.56
2022-11-23T00:04:08.852Z,97498.63
2022-11-23T00:06:37.349Z,97503.41
2022-11-23T00:09:06.153Z,97491.84
2022-11-23T00:11:35.919Z,97495.94
2022-11-23T00:14:04.211Z,97499.38
2022-11-23T00:16:32.280Z,97493.53
2022-11-23T00:19:02.525Z,97501.50
2022-11-23T00:21:33.081Z,97494.94
2022-11-23T00:24:01.200Z,97500.44
2022-11-23T00:26:28.860Z,97494.06
2022-11-23T00:28:56.642Z,97492.34
2022-11-23T00:31:27.820Z,97495.81
2022-11-23T00:33:57.408Z,97494.22
2022-11-23T00:36:27.467Z,97491.03
2022-11-23T00:38:55.357Z,97492.03
2022-11-23T00:41:27.151Z,97492.94
2022-11-23T00:43:55.297Z,97497.56
2022-11-23T00:46:28.129Z,97493.94
2022-11-23T00:48:57.353Z,97498.28
2022-11-23T00:51:33.097Z,97495.59
2022-11-23T00:54:02.015Z,97492.75
2022-11-23T00:56:31.762Z,97496.75
2022-11-23T00:59:02.817Z,97500.88
2022-11-23T01:01:34.854Z,97487.28
2022-11-23T01:04:05.640Z,97496.16
2022-11-23T01:06:37.774Z,97490.34
2022-11-23T01:09:18.344Z,97498.28
2022-11-23T01:11:46.125Z,97503.41
2022-11-23T01:14:14.030Z,97497.91
2022-11-23T01:16:42.488Z,97506.66
2022-11-23T01:19:13.636Z,97505.81
2022-11-23T01:21:41.621Z,97502.16
2022-11-23T01:24:22.045Z,97513.25
2022-11-23T01:26:54.763Z,97512.84
2022-11-23T01:29:23.564Z,97517.53
2022-11-23T01:31:51.312Z,97523.94
2022-11-23T01:34:19.252Z,97518.06
2022-11-23T01:36:46.883Z,97519.94
2022-11-23T01:39:14.805Z,97513.84
2022-11-23T01:41:44.957Z,97521.09
2022-11-23T01:44:33.125Z,97516.56
2022-11-23T01:47:04.598Z,97522.47
2022-11-23T01:49:39.055Z,97518.50
2022-11-23T01:52:21.249Z,97520.09
2022-11-23T01:54:58.104Z,97521.22
2022-11-23T01:57:45.636Z,97521.41
2022-11-23T02:00:13.992Z,97523.44
2022-11-23T02:02:55.344Z,97526.41
2022-11-23T02:05:32.543Z,97523.63
2022-11-23T02:08:02.304Z,97532.16
2022-11-23T02:10:31.830Z,97532.34
2022-11-23T02:13:12.079Z,97528.31
2022-11-23T02:15:40.619Z,97533.44
2022-11-23T02:18:17.753Z,97540.47
2022-11-23T02:20:46.645Z,97532.53
2022-11-23T02:23:45.956Z,97532.22
2022-11-23T02:26:33.883Z,97528.31
2022-11-23T02:29:28.406Z,97528.44
2022-11-23T02:31:56.488Z,97531.84
2022-11-23T02:34:25.656Z,97544.63
2022-11-23T02:36:56.673Z,97536.19
2022-11-23T02:39:30.534Z,97537.16
2022-11-23T02:41:59.870Z,97537.25
2022-11-23T02:44:36.710Z,97544.16
2022-11-23T02:47:06.905Z,97542.59
2022-11-23T02:49:35.156Z,97541.34
2022-11-23T02:52:03.365Z,97546.16
2022-11-23T02:54:31.155Z,97532.81
2022-11-23T02:56:58.924Z,97542.94
2022-11-23T02:59:26.793Z,97548.06
2022-11-23T03:01:54.803Z,97545.72
2022-11-23T03:04:27.629Z,97548.78
2022-11-23T03:06:56.289Z,97547.06
2022-11-23T03:09:26.330Z,97549.66
2022-11-23T03:11:54.959Z,97545.38
2022-11-23T03:14:23.126Z,97546.75
2022-11-23T03:16:59.283Z,97544.28
2022-11-23T03:19:28.110Z,97538.81
2022-11-23T03:21:55.868Z,97541.22
2022-11-23T03:24:23.648Z,97542.56
2022-11-23T03:26:53.204Z,97537.72
2022-11-23T03:29:25.701Z,97533.88
2022-11-23T03:31:55.499Z,97538.66
2022-11-23T03:34:23.669Z,97530.41
2022-11-23T03:36:52.015Z,97527.19
2022-11-23T03:39:20.945Z,97530.22
2022-11-23T03:41:51.663Z,97534.63
2022-11-23T03:44:22.287Z,97533.44
2022-11-23T03:46:52.767Z,97535.81
2022-11-23T03:49:20.368Z,97547.06
2022-11-23T03:51:48.180Z,97547.19
2022-11-23T03:54:15.816Z,97544.31
2022-11-23T03:56:43.809Z,97528.75
2022-11-23T03:59:11.861Z,97537.41
2022-11-23T04:01:39.652Z,97530.69
2022-11-23T04:04:11.388Z,97535.94
2022-11-23T04:07:08.493Z,97528.09
2022-11-23T04:09:41.957Z,97526.00
2022-11-23T04:12:21.899Z,97520.50
2022-11-23T04:14:50.248Z,97521.81
2022-11-23T04:17:19.178Z,97521.16
2022-11-23T04:19:47.155Z,97525.00
2022-11-23T04:22:15.955Z,97519.06
2022-11-23T04:24:44.101Z,97520.94
2022-11-23T04:27:11.959Z,97518.94
2022-11-23T04:29:39.606Z,97511.13
2022-11-23T04:32:07.969Z,97514.69
2022-11-23T04:34:38.095Z,97517.34
2022-11-23T04:37:11.800Z,97526.50
2022-11-23T04:39:42.480Z,97524.56
2022-11-23T04:42:22.996Z,97519.06
2022-11-23T04:44:59.736Z,97524.13
2022-11-23T04:47:27.741Z,97515.22
2022-11-23T04:50:00.615Z,97521.50
2022-11-23T04:52:28.562Z,97513.72
2022-11-23T04:54:57.134Z,97513.44
2022-11-23T04:57:25.688Z,97516.03
2022-11-23T04:59:53.653Z,97509.84
2022-11-23T05:02:24.881Z,97511.84
2022-11-23T05:05:09.370Z,97512.13
2022-11-23T05:07:37.142Z,97516.78
2022-11-23T05:10:09.130Z,97518.34
2022-11-23T05:12:37.824Z,97518.84
2022-11-23T05:15:06.727Z,97518.63
2022-11-23T05:17:39.467Z,97519.91
2022-11-23T05:20:13.602Z,97518.47
2022-11-23T05:22:47.246Z,97514.16
2022-11-23T05:25:18.328Z,97512.13
2022-11-23T05:27:49.592Z,97517.34
2022-11-23T05:30:18.391Z,97516.81
2022-11-23T05:32:46.952Z,97517.41
2022-11-23T05:35:15.146Z,97507.94
2022-11-23T05:37:44.018Z,97507.81
2022-11-23T05:40:13.668Z,97503.03
2022-11-23T05:42:41.920Z,97497.88
2022-11-23T05:45:15.940Z,97499.59
2022-11-23T05:47:55.300Z,97502.47
2022-11-23T05:50:32.950Z,97498.28
2022-11-23T05:53:19.217Z,97508.69
2022-11-23T05:55:51.918Z,97500.75
2022-11-23T05:58:19.907Z,97504.06
2022-11-23T06:00:48.582Z,97503.22
2022-11-23T06:03:20.852Z,97508.38
2022-11-23T06:05:48.549Z,97503.41
2022-11-23T06:08:18.751Z,97503.63
2022-11-23T06:10:49.027Z,97505.72
2022-11-23T06:13:16.690Z,97502.69
2022-11-23T06:15:45.405Z,97500.44
2022-11-23T06:18:14.293Z,97495.84
2022-11-23T06:20:48.957Z,97501.88
2022-11-23T06:23:16.579Z,97503.78
2022-11-23T06:25:44.204Z,97503.69
2022-11-23T06:28:16.913Z,97506.22
2022-11-23T06:30:47.634Z,97501.88
2022-11-23T06:33:15.596Z,97508.38
2022-11-23T06:36:00.270Z,97508.03
2022-11-23T06:38:33.328Z,97508.69
2022-11-23T06:41:27.001Z,97516.78
2022-11-23T06:43:59.131Z,97507.25
2022-11-23T06:46:39.461Z,97509.03
2022-11-23T06:49:08.362Z,97514.16
2022-11-23T06:51:36.287Z,97525.53
2022-11-23T06:54:04.361Z,97522.66
2022-11-23T06:56:32.806Z,97527.44
2022-11-23T06:59:00.804Z,97527.03
2022-11-23T07:01:28.818Z,97535.63
2022-11-23T07:04:02.480Z,97537.13
2022-11-23T07:06:33.981Z,97539.75
2022-11-23T07:09:09.387Z,97535.16
2022-11-23T07:12:00.133Z,97531.56
2022-11-23T07:14:28.512Z,97535.75
2022-11-23T07:16:57.202Z,97546.97
2022-11-23T07:19:25.078Z,97551.25
2022-11-23T07:21:55.636Z,97547.69
2022-11-23T07:24:23.363Z,97550.34
2022-11-23T07:26:51.406Z,97550.91
2022-11-23T07:29:20.337Z,97551.38
2022-11-23T07:31:48.048Z,97554.28
2022-11-23T07:34:15.921Z,97547.50
2022-11-23T07:36:44.512Z,97552.50
2022-11-23T07:39:12.299Z,97540.56
2022-11-23T07:41:40.127Z,97553.44
2022-11-23T07:44:18.216Z,97557.78
2022-11-23T07:46:46.229Z,97553.56
2022-11-23T07:49:14.081Z,97557.50
2022-11-23T07:51:41.824Z,97559.09
2022-11-23T07:54:09.492Z,97563.50
2022-11-23T07:56:37.259Z,97564.72
2022-11-23T07:59:05.092Z,97570.38
2022-11-23T08:01:32.869Z,97574.59
2022-11-23T08:04:00.491Z,97567.06
2022-11-23T08:06:29.124Z,97569.09
2022-11-23T08:09:02.118Z,97567.06
2022-11-23T08:11:29.768Z,97557.88
2022-11-23T08:13:57.374Z,97561.69
2022-11-23T08:16:25.026Z,97565.09
2022-11-23T08:19:18.571Z,97567.97
2022-11-23T08:21:46.730Z,97560.59
2022-11-23T08:24:15.529Z,97561.53
2022-11-23T08:26:43.152Z,97562.47
2022-11-23T08:29:10.722Z,97563.19
2022-11-23T08:31:38.283Z,97564.50
2022-11-23T08:34:05.883Z,97568.78
2022-11-23T08:36:33.451Z,97562.53
2022-11-23T08:39:01.185Z,97565.69
2022-11-23T08:41:29.129Z,97559.22
2022-11-23T08:43:56.948Z,97563.06
2022-11-23T08:46:25.129Z,97559.53
2022-11-23T08:48:52.688Z,97549.53
2022-11-23T08:51:22.841Z,97551.44
2022-11-23T08:53:51.225Z,97555.28
2022-11-23T08:56:19.147Z,97548.13
2022-11-23T08:58:47.456Z,97555.69
2022-11-23T09:01:17.263Z,97565.78
2022-11-23T09:03:45.532Z,97560.09
2022-11-23T09:06:13.543Z,97560.38
2022-11-23T09:08:41.226Z,97569.34
2022-11-23T09:11:12.549Z,97562.84
2022-11-23T09:13:40.511Z,97558.72
2022-11-23T09:16:08.819Z,97557.75
2022-11-23T09:18:36.878Z,97560.66
2022-11-23T09:21:06.173Z,97559.97
2022-11-23T09:23:34.266Z,97555.81
2022-11-23T09:26:03.909Z,97550.97
2022-11-23T09:28:32.389Z,97547.16
2022-11-23T09:31:04.510Z,97549.78
2022-11-23T09:33:32.217Z,97553.91
2022-11-23T09:36:02.101Z,97548.13
2022-11-23T09:38:51.905Z,97554.75
2022-11-23T09:42:00.743Z,97553.75
2022-11-23T09:44:52.371Z,97538.31
2022-11-23T09:48:01.758Z,97536.50
2022-11-23T09:50:53.153Z,97540.03
2022-11-23T09:53:32.568Z,97541.66
2022-11-23T09:56:00.375Z,97539.66
2022-11-23T09:58:36.855Z,97532.38
2022-11-23T10:01:11.698Z,97537.84
2022-11-23T10:03:48.242Z,97534.19
2022-11-23T10:06:35.044Z,97528.22
2022-11-23T10:09:30.815Z,97534.34
2022-11-23T10:12:22.197Z,97529.41
2022-11-23T10:15:14.094Z,97524.41
2022-11-23T10:18:19.969Z,97524.41
2022-11-23T10:20:55.927Z,97514.63
2022-11-23T10:23:35.577Z,97519.19
2022-11-23T10:26:03.143Z,97509.22
2022-11-23T10:28:32.283Z,97511.28
2022-11-23T10:31:13.267Z,97504.59
2022-11-23T10:36:56.119Z,97509.47
2022-11-23T10:39:27.463Z,97507.66
2022-11-23T10:42:01.847Z,97504.78
2022-11-23T10:44:37.993Z,97504.09
2022-11-23T10:47:06.184Z,97508.63
2022-11-23T10:49:36.849Z,97505.94
2022-11-23T10:52:27.737Z,97500.56
2022-11-23T10:54:59.939Z,97505.66
2022-11-23T10:57:45.602Z,97504.03
2022-11-23T11:00:13.929Z,97503.50
2022-11-23T11:02:51.909Z,97500.81
2022-11-23T11:08:35.660Z,97493.47
2022-11-23T11:11:22.680Z,97492.59
2022-11-23T11:13:50.819Z,97487.41
2022-11-23T11:16:35.602Z,97488.72
2022-11-23T11:19:35.799Z,97479.84
2022-11-23T11:22:37.826Z,97471.41
2022-11-23T11:25:07.071Z,97481.28
2022-11-23T11:27:35.392Z,97472.06
2022-11-23T11:30:28.424Z,97479.44
2022-11-23T11:33:20.272Z,97467.41
2022-11-23T11:35:52.555Z,97461.41
2022-11-23T11:38:33.526Z,97464.28
2022-11-23T11:41:13.450Z,97452.09
2022-11-23T11:43:46.938Z,97452.66
2022-11-23T11:46:31.641Z,97459.19
2022-11-23T11:49:34.007Z,97440.84
2022-11-23T11:52:12.014Z,97443.78
2022-11-23T11:54:54.819Z,97440.94
2022-11-23T11:58:00.764Z,97442.13
2022-11-23T12:00:30.538Z,97443.50
2022-11-23T12:03:25.937Z,97437.25
2022-11-23T12:06:00.120Z,97433.56
2022-11-23T12:09:26.200Z,97432.78
2022-11-23T12:11:53.968Z,97420.16
2022-11-23T12:14:21.820Z,97414.09
2022-11-23T12:17:36.539Z,97414.56
2022-11-23T12:20:40.914Z,97413.59
2022-11-23T12:23:40.462Z,97402.28
2022-11-23T12:26:37.763Z,97406.31
2022-11-23T12:29:38.230Z,97399.44
2022-11-23T12:32:29.989Z,97407.47
2022-11-23T12:35:36.478Z,97406.22
2022-11-23T12:38:52.804Z,97403.09
2022-11-23T12:41:37.865Z,97399.81
2022-11-23T12:44:43.883Z,97418.63
2022-11-23T12:47:30.183Z,97412.09
2022-11-23T12:50:17.731Z,97411.22
2022-11-23T12:53:27.207Z,97392.84
2022-11-23T12:56:12.482Z,97392.56
2022-11-23T12:58:43.743Z,97400.78
2022-11-23T13:01:29.357Z,97393.03
2022-11-23T13:04:59.581Z,97396.16
2022-11-23T13:08:03.596Z,97383.81
2022-11-23T13:11:15.001Z,97371.03
2022-11-23T13:14:08.637Z,97378.19
2022-11-23T13:16:53.986Z,97370.38
2022-11-23T13:19:57.015Z,97381.03
2022-11-23T13:22:25.857Z,97379.13
2022-11-23T13:25:13.429Z,97380.16
2022-11-23T13:27:50.129Z,97369.97
2022-11-23T13:31:13.430Z,97378.56
2022-11-23T13:33:34.304Z,97364.94
2022-11-23T13:36:11.546Z,97369.38
2022-11-23T13:38:44.152Z,97365.75
2022-11-23T13:41:33.906Z,97367.94
2022-11-23T13:44:25.507Z,97358.72
2022-11-23T13:47:20.316Z,97361.00
2022-11-23T13:49:52.666Z,97362.13
2022-11-23T13:52:23.324Z,97353.06
2022-11-23T13:55:10.744Z,97347.03
2022-11-23T13:57:41.876Z,97340.72
2022-11-23T14:00:50.858Z,97335.13
2022-11-23T14:03:49.662Z,97327.19
2022-11-23T14:06:48.162Z,97324.44
2022-11-23T14:09:54.671Z,97332.25
2022-11-23T14:12:42.555Z,97320.75
2022-11-23T14:15:22.302Z,97315.78
2022-11-23T14:18:21.024Z,97312.41
2022-11-23T14:21:20.356Z,97303.50
2022-11-23T14:24:35.450Z,97306.31
2022-11-23T14:27:46.134Z,97309.47
2022-11-23T14:30:33.787Z,97317.44
2022-11-23T14:33:33.187Z,97305.22
2022-11-23T14:36:10.692Z,97304.56
2022-11-23T14:39:20.440Z,97296.91
2022-11-23T14:41:55.302Z,97298.13
2022-11-23T14:44:28.014Z,97297.56
2022-11-23T14:47:05.507Z,97294.94
2022-11-23T14:49:34.202Z,97300.97
2022-11-23T14:52:06.943Z,97297.44
2022-11-23T14:54:35.940Z,97308.13
2022-11-23T14:57:07.429Z,97294.16
2022-11-23T14:59:41.667Z,97291.00
2022-11-23T15:02:22.065Z,97292.06
2022-11-23T15:05:07.950Z,97285.25
2022-11-23T15:08:10.671Z,97276.72
2022-11-23T15:11:29.750Z,97283.34
2022-11-23T15:14:03.271Z,97286.50
2022-11-23T15:16:42.360Z,97283.09
2022-11-23T15:19:28.593Z,97278.53
2022-11-23T15:21:57.224Z,97288.69
2022-11-23T15:24:27.213Z,97283.56
2022-11-23T15:27:10.847Z,97291.22
2022-11-23T15:29:39.996Z,97290.00
2022-11-23T15:32:35.327Z,97281.91
2022-11-23T15:35:08.284Z,97288.72
2022-11-23T15:37:46.936Z,97294.28
2022-11-23T15:40:21.119Z,97295.59
2022-11-23T15:42:51.141Z,97288.75
2022-11-23T15:46:01.207Z,97287.31
2022-11-23T15:48:35.357Z,97282.94
2022-11-23T15:51:11.201Z,97278.31
2022-11-23T15:53:53.577Z,97286.06
2022-11-23T15:56:36.916Z,97286.34
2022-11-23T15:59:40.969Z,97292.19
2022-11-23T16:02:24.725Z,97292.13
2022-11-23T16:05:19.096Z,97293.00
2022-11-23T16:08:00.304Z,97292.22
2022-11-23T16:10:31.441Z,97296.19
2022-11-23T16:13:05.914Z,97301.75
2022-11-23T16:15:44.010Z,97301.31
2022-11-23T16:18:18.899Z,97298.53
2022-11-23T16:20:52.395Z,97319.47
2022-11-23T16:23:30.412Z,97326.53
2022-11-23T16:26:05.402Z,97331.88
2022-11-23T16:28:37.244Z,97340.22
2022-11-23T16:31:05.568Z,97339.44
2022-11-23T16:33:34.172Z,97336.31
2022-11-23T16:36:01.999Z,97337.31
2022-11-23T16:39:37.855Z,97339.69
2022-11-23T16:42:23.619Z,97346.34
2022-11-23T16:44:53.901Z,97356.78
2022-11-23T16:47:24.149Z,97358.69
2022-11-23T16:49:53.066Z,97355.13
2022-11-23T16:52:39.447Z,97366.09
2022-11-23T16:55:48.574Z,97379.34
2022-11-23T16:58:16.873Z,97392.47
2022-11-23T17:00:58.440Z,97406.28
2022-11-23T17:04:22.485Z,97412.81
2022-11-23T17:10:04.447Z,97426.63
2022-11-23T17:12:44.234Z,97433.09
2022-11-23T17:15:34.318Z,97442.88
2022-11-23T17:18:20.486Z,97455.16
2022-11-23T17:20:51.219Z,97461.28
2022-11-23T17:23:45.705Z,97476.41
2022-11-23T17:26:54.096Z,97480.09
2022-11-23T17:29:27.094Z,97483.97
2022-11-23T17:32:42.234Z,97492.47
2022-11-23T17:35:20.457Z,97490.41
2022-11-23T17:37:59.018Z,97487.72
2022-11-23T17:40:30.348Z,97497.91
2022-11-23T17:43:23.657Z,97497.81
2022-11-23T17:45:58.355Z,97504.81
2022-11-23T17:48:28.768Z,97512.47
2022-11-23T17:50:56.438Z,97516.16
2022-11-23T17:53:26.098Z,97520.25
2022-11-23T17:55:53.776Z,97531.00
2022-11-23T17:58:42.859Z,97531.59
2022-11-23T18:01:36.088Z,97547.91
2022-11-23T18:04:08.398Z,97542.88
2022-11-23T18:06:39.194Z,97550.63
2022-11-23T18:09:25.575Z,97552.47
2022-11-23T18:12:11.288Z,97559.03
2022-11-23T18:14:57.769Z,97571.38
2022-11-23T18:17:25.688Z,97576.06
2022-11-23T18:20:05.102Z,97573.47
2022-11-23T18:22:50.851Z,97566.00
2022-11-23T18:25:44.363Z,97561.09
2022-11-23T18:28:22.507Z,97562.56
2022-11-23T18:30:53.480Z,97570.34
2022-11-23T18:33:45.198Z,97576.25
2022-11-23T18:36:38.628Z,97584.72
2022-11-23T18:39:23.022Z,97592.72
2022-11-23T18:41:52.751Z,97594.03
2022-11-23T18:44:20.535Z,97593.06
2022-11-23T18:47:00.492Z,97595.59
2022-11-23T18:49:28.236Z,97597.34
2022-11-23T18:52:15.527Z,97602.63
2022-11-23T18:54:57.312Z,97605.66
2022-11-23T18:57:30.169Z,97603.56
2022-11-23T19:00:10.638Z,97604.81
2022-11-23T19:02:56.679Z,97607.88
2022-11-23T19:05:31.050Z,97611.09
2022-11-23T19:08:21.819Z,97611.75
2022-11-23T19:11:01.044Z,97618.31
2022-11-23T19:13:49.733Z,97621.53
2022-11-23T19:17:17.796Z,97621.25
2022-11-23T19:19:46.387Z,97635.78
2022-11-23T19:22:13.987Z,97637.19
2022-11-23T19:24:41.641Z,97637.53
2022-11-23T19:27:12.505Z,97637.53
2022-11-23T19:29:40.288Z,97641.59
2022-11-23T19:32:08.202Z,97647.72
2022-11-23T19:34:35.877Z,97649.19
2022-11-23T19:37:03.453Z,97658.25
2022-11-23T19:39:33.285Z,97671.28
2022-11-23T19:42:01.640Z,97667.97
2022-11-23T19:44:29.411Z,97670.81
2022-11-23T19:46:57.056Z,97685.59
2022-11-23T19:49:24.928Z,97680.09
2022-11-23T19:51:53.827Z,97693.06
2022-11-23T19:54:21.746Z,97685.34
2022-11-23T19:56:52.874Z,97699.09
2022-11-23T19:59:20.784Z,97702.06
2022-11-23T20:01:48.643Z,97704.31
2022-11-23T20:04:16.574Z,97708.47
2022-11-23T20:06:44.356Z,97712.66
2022-11-23T20:09:23.574Z,97710.66
2022-11-23T20:11:51.897Z,97725.41
2022-11-23T20:14:20.270Z,97727.31
2022-11-23T20:16:48.315Z,97741.44
2022-11-23T20:19:16.210Z,97747.47
2022-11-23T20:21:44.302Z,97751.63
2022-11-23T20:24:13.892Z,97762.47
2022-11-23T20:26:42.940Z,97765.00
2022-11-23T20:29:11.566Z,97765.84
2022-11-23T20:31:39.478Z,97770.53
2022-11-23T20:34:08.969Z,97777.97
2022-11-23T20:36:38.806Z,97784.97
2022-11-23T20:39:10.879Z,97802.94
2022-11-23T20:41:39.300Z,97806.03
2022-11-23T20:44:12.419Z,97811.59
2022-11-23T20:49:30.231Z,97832.22
2022-11-23T20:51:59.130Z,97827.44
2022-11-23T20:54:27.029Z,97842.44
2022-11-23T20:56:54.929Z,97844.53
2022-11-23T20:59:23.934Z,97839.47
2022-11-23T21:01:52.199Z,97851.34
2022-11-23T21:04:20.075Z,97855.44
2022-11-23T21:06:47.698Z,97867.75
2022-11-23T21:09:16.987Z,97872.44
2022-11-23T21:12:02.938Z,97880.25
2022-11-23T21:14:32.686Z,97877.47
2022-11-23T21:17:00.941Z,97884.38
2022-11-23T21:19:37.664Z,97890.13
2022-11-23T21:22:11.847Z,97891.34
2022-11-23T21:24:40.812Z,97901.56
2022-11-23T21:27:12.199Z,97902.34
2022-11-23T21:29:40.375Z,97902.06
2022-11-23T21:32:08.084Z,97906.06
2022-11-23T21:34:36.259Z,97904.13
2022-11-23T21:37:04.030Z,97913.72
2022-11-23T21:39:31.849Z,97918.47
2022-11-23T21:41:59.540Z,97929.44
2022-11-23T21:44:27.219Z,97931.88
2022-11-23T21:46:55.460Z,97925.97
2022-11-23T21:49:23.224Z,97930.91
2022-11-23T21:51:50.868Z,97937.63
2022-11-23T21:54:18.701Z,97939.53
2022-11-23T21:56:47.127Z,97958.88
2022-11-23T21:59:14.848Z,97959.09
2022-11-23T22:01:43.172Z,97966.81
2022-11-23T22:04:13.271Z,97974.81
2022-11-23T22:06:42.166Z,97976.06
2022-11-23T22:09:11.302Z,97990.19
2022-11-23T22:11:41.121Z,97985.75
2022-11-23T22:14:14.943Z,97989.75
2022-11-23T22:16:44.419Z,97993.63
2022-11-23T22:19:15.452Z,97995.13
2022-11-23T22:21:45.850Z,97999.06
2022-11-23T22:24:17.714Z,98000.88
2022-11-23T22:26:46.482Z,98006.44
2022-11-23T22:29:14.421Z,98009.75
2022-11-23T22:31:43.416Z,98011.97
2022-11-23T22:34:12.754Z,98009.91
2022-11-23T22:36:40.679Z,98011.34
2022-11-23T22:39:09.309Z,98016.91
2022-11-23T22:41:38.216Z,98027.94
2022-11-23T22:44:08.098Z,98025.09
2022-11-23T22:46:37.320Z,98020.00
2022-11-23T22:49:05.227Z,98027.47
2022-11-23T22:51:33.661Z,98039.66
2022-11-23T22:54:02.096Z,98048.56
2022-11-23T22:56:31.156Z,98042.16
2022-11-23T22:58:59.217Z,98042.94
2022-11-23T23:01:29.834Z,98046.75
2022-11-23T23:04:01.331Z,98052.31
2022-11-23T23:06:35.861Z,98060.41
2022-11-23T23:09:06.678Z,98052.25
2022-11-23T23:11:40.303Z,98064.91
2022-11-23T23:14:08.389Z,98058.41
2022-11-23T23:16:36.225Z,98068.50
2022-11-23T23:19:06.243Z,98072.78
2022-11-23T23:21:34.141Z,98069.44
2022-11-23T23:24:02.055Z,98073.72
2022-11-23T23:26:30.191Z,98075.06
2022-11-23T23:29:01.037Z,98084.16
2022-11-23T23:31:30.058Z,98089.75
2022-11-23T23:33:59.168Z,98094.13
2022-11-23T23:36:26.910Z,98094.06
2022-11-23T23:38:54.637Z,98091.78
2022-11-23T23:41:22.600Z,98096.69
2022-11-23T23:43:50.795Z,98094.25
2022-11-23T23:46:18.898Z,98092.19
2022-11-23T23:48:46.781Z,98098.84
2022-11-23T23:51:16.920Z,98095.75
2022-11-23T23:53:45.897Z,98108.25
2022-11-23T23:56:19.360Z,98098.53
2022-11-23T23:58:47.691Z,98094.13
